createdAt,value
2023-05-09T00:00:50.780Z,100617.16
2023-05-09T00:03:19.223Z,100619.22
2023-05-09T00:05:47.701Z,100607.31
2023-05-09T00:08:16.086Z,100613.03
2023-05-09T00:10:44.972Z,100615.13
2023-05-09T00:13:14.116Z,100619.66
2023-05-09T00:15:44.385Z,100614.34
2023-05-09T00:18:12.766Z,100610.44
2023-05-09T00:20:42.075Z,100605.97
2023-05-09T00:23:10.458Z,100598.59
2023-05-09T00:25:38.851Z,100599.19
2023-05-09T00:28:07.865Z,100595.75
2023-05-09T00:30:36.576Z,100595.13
2023-05-09T00:33:06.289Z,100596.34
2023-05-09T00:35:34.949Z,100592.69
2023-05-09T00:38:03.336Z,100592.47
2023-05-09T00:40:31.787Z,100589.22
2023-05-09T00:43:00.519Z,100583.66
2023-05-09T00:45:28.932Z,100580.41
2023-05-09T00:47:57.469Z,100573.88
2023-05-09T00:50:27.231Z,100578.78
2023-05-09T00:52:55.841Z,100569.56
2023-05-09T00:55:25.121Z,100568.97
2023-05-09T00:57:53.800Z,100564.47
2023-05-09T01:00:22.435Z,100555.88
2023-05-09T01:02:54.091Z,100566.53
2023-05-09T01:05:24.126Z,100557.94
2023-05-09T01:08:02.168Z,100553.03
2023-05-09T01:10:40.668Z,100551.41
2023-05-09T01:13:17.126Z,100552.66
2023-05-09T01:15:55.586Z,100542.81
2023-05-09T01:18:33.878Z,100542.81
2023-05-09T01:21:07.743Z,100552.63
2023-05-09T01:24:14.675Z,100541.53
2023-05-09T01:26:48.501Z,100541.13
2023-05-09T01:29:36.432Z,100542.38
2023-05-09T01:32:09.776Z,100537.28
2023-05-09T01:34:42.259Z,100541.34
2023-05-09T01:37:12.682Z,100536.84
2023-05-09T01:39:47.951Z,100537.91
2023-05-09T01:42:18.023Z,100540.34
2023-05-09T01:44:49.066Z,100549.78
2023-05-09T01:47:19.089Z,100544.03
2023-05-09T01:49:48.913Z,100534.03
2023-05-09T01:52:21.100Z,100524.63
2023-05-09T01:54:51.490Z,100519.72
2023-05-09T01:57:21.879Z,100518.91
2023-05-09T01:59:52.979Z,100521.78
2023-05-09T02:02:21.458Z,100518.28
2023-05-09T02:04:51.869Z,100514.81
2023-05-09T02:07:20.969Z,100515.84
2023-05-09T02:09:52.127Z,100507.28
2023-05-09T02:12:20.820Z,100502.38
2023-05-09T02:14:51.544Z,100502.97
2023-05-09T02:17:19.910Z,100497.88
2023-05-09T02:19:48.801Z,100502.38
2023-05-09T02:22:17.474Z,100514.44
2023-05-09T02:24:46.322Z,100504.81
2023-05-09T02:27:16.329Z,100505.88
2023-05-09T02:29:49.473Z,100508.09
2023-05-09T02:32:26.963Z,100511.81
2023-05-09T02:34:55.931Z,100506.69
2023-05-09T02:37:25.733Z,100498.69
2023-05-09T02:39:54.140Z,100494.63
2023-05-09T02:42:26.027Z,100499.31
2023-05-09T02:44:55.077Z,100495.47
2023-05-09T02:47:25.780Z,100498.50
2023-05-09T02:49:54.227Z,100495.84
2023-05-09T02:52:22.953Z,100493.81
2023-05-09T02:54:51.371Z,100488.94
2023-05-09T02:57:20.008Z,100479.91
2023-05-09T02:59:48.494Z,100494.03
2023-05-09T03:02:16.948Z,100479.72
2023-05-09T03:04:47.293Z,100485.22
2023-05-09T03:07:15.816Z,100478.50
2023-05-09T03:09:44.257Z,100494.03
2023-05-09T03:12:12.759Z,100487.88
2023-05-09T03:14:41.122Z,100480.13
2023-05-09T03:17:09.514Z,100477.44
2023-05-09T03:19:38.372Z,100487.66
2023-05-09T03:22:08.346Z,100480.91
2023-05-09T03:24:42.729Z,100481.31
2023-05-09T03:27:11.503Z,100472.56
2023-05-09T03:29:39.954Z,100472.38
2023-05-09T03:32:08.326Z,100468.28
2023-05-09T03:34:37.190Z,100469.09
2023-05-09T03:37:08.042Z,100459.47
2023-05-09T03:39:40.336Z,100456.00
2023-05-09T03:42:08.938Z,100457.03
2023-05-09T03:44:37.372Z,100449.28
2023-05-09T03:47:06.073Z,100454.19
2023-05-09T03:49:39.477Z,100466.84
2023-05-09T03:52:11.105Z,100462.34
2023-05-09T03:54:39.716Z,100462.75
2023-05-09T03:57:08.258Z,100459.50
2023-05-09T03:59:36.621Z,100454.59
2023-05-09T04:02:05.996Z,100452.97
2023-05-09T04:04:34.882Z,100443.16
2023-05-09T04:07:03.885Z,100447.03
2023-05-09T04:09:33.807Z,100455.44
2023-05-09T04:12:02.261Z,100445.19
2023-05-09T04:14:30.767Z,100442.97
2023-05-09T04:16:59.417Z,100446.22
2023-05-09T04:19:28.016Z,100450.53
2023-05-09T04:21:56.825Z,100447.44
2023-05-09T04:24:25.342Z,100453.78
2023-05-09T04:26:55.400Z,100453.78
2023-05-09T04:29:29.004Z,100455.81
2023-05-09T04:31:59.375Z,100451.28
2023-05-09T04:34:28.284Z,100460.50
2023-05-09T04:36:59.388Z,100456.63
2023-05-09T04:39:27.898Z,100451.69
2023-05-09T04:42:06.673Z,100454.09
2023-05-09T04:44:35.911Z,100447.16
2023-05-09T04:47:04.800Z,100447.97
2023-05-09T04:49:33.221Z,100444.28
2023-05-09T04:52:01.645Z,100444.28
2023-05-09T04:54:30.325Z,100443.00
2023-05-09T04:57:09.837Z,100438.47
2023-05-09T04:59:44.369Z,100425.66
2023-05-09T05:02:15.157Z,100418.94
2023-05-09T05:04:43.990Z,100418.88
2023-05-09T05:07:12.648Z,100420.38
2023-05-09T05:09:41.215Z,100417.59
2023-05-09T05:12:10.090Z,100415.03
2023-05-09T05:14:40.209Z,100412.34
2023-05-09T05:17:11.870Z,100411.81
2023-05-09T05:19:40.398Z,100415.50
2023-05-09T05:22:09.755Z,100409.31
2023-05-09T05:24:41.181Z,100411.84
2023-05-09T05:27:09.625Z,100416.34
2023-05-09T05:29:38.090Z,100410.97
2023-05-09T05:32:07.561Z,100407.66
2023-05-09T05:34:39.386Z,100402.44
2023-05-09T05:37:08.099Z,100416.88
2023-05-09T05:39:37.701Z,100408.13
2023-05-09T05:42:06.322Z,100415.75
2023-05-09T05:44:35.144Z,100411.88
2023-05-09T05:47:03.843Z,100398.66
2023-05-09T05:49:32.820Z,100402.63
2023-05-09T05:52:03.017Z,100404.78
2023-05-09T05:54:31.627Z,100402.09
2023-05-09T05:57:00.353Z,100410.38
2023-05-09T05:59:28.906Z,100413.50
2023-05-09T06:01:57.386Z,100389.03
2023-05-09T06:04:26.240Z,100396.97
2023-05-09T06:06:54.747Z,100399.28
2023-05-09T06:09:24.491Z,100398.03
2023-05-09T06:11:53.330Z,100401.16
2023-05-09T06:14:21.746Z,100396.50
2023-05-09T06:16:50.409Z,100399.28
2023-05-09T06:19:18.824Z,100389.16
2023-05-09T06:21:47.218Z,100392.34
2023-05-09T06:24:23.892Z,100391.16
2023-05-09T06:27:05.390Z,100386.28
2023-05-09T06:29:34.316Z,100391.53
2023-05-09T06:32:02.992Z,100382.16
2023-05-09T06:34:31.470Z,100377.47
2023-05-09T06:36:59.959Z,100379.75
2023-05-09T06:39:28.591Z,100366.16
2023-05-09T06:41:57.042Z,100371.78
2023-05-09T06:44:33.891Z,100371.88
2023-05-09T06:47:02.788Z,100363.50
2023-05-09T06:49:31.254Z,100362.78
2023-05-09T06:51:59.887Z,100355.59
2023-05-09T06:54:28.303Z,100346.53
2023-05-09T06:56:56.829Z,100347.59
2023-05-09T06:59:25.598Z,100352.59
2023-05-09T07:01:55.939Z,100345.72
2023-05-09T07:04:24.347Z,100348.97
2023-05-09T07:06:52.754Z,100347.78
2023-05-09T07:09:21.130Z,100350.28
2023-05-09T07:11:49.435Z,100348.13
2023-05-09T07:14:17.824Z,100345.22
2023-05-09T07:16:46.837Z,100331.06
2023-05-09T07:19:16.802Z,100338.00
2023-05-09T07:21:45.334Z,100333.09
2023-05-09T07:24:13.682Z,100329.88
2023-05-09T07:26:42.094Z,100325.75
2023-05-09T07:29:10.430Z,100311.88
2023-05-09T07:31:38.802Z,100310.41
2023-05-09T07:34:07.300Z,100310.34
2023-05-09T07:39:08.120Z,100310.34
2023-05-09T07:41:36.557Z,100302.00
2023-05-09T07:44:04.919Z,100294.03
2023-05-09T07:46:33.313Z,100296.53
2023-05-09T07:49:01.677Z,100295.31
2023-05-09T07:51:30.103Z,100292.41
2023-05-09T07:54:01.214Z,100275.34
2023-05-09T07:56:29.589Z,100283.56
2023-05-09T07:58:57.981Z,100281.34
2023-05-09T08:01:26.345Z,100271.59
2023-05-09T08:03:54.815Z,100271.59
2023-05-09T08:06:23.184Z,100275.59
2023-05-09T08:08:51.747Z,100279.34
2023-05-09T08:11:21.557Z,100275.63
2023-05-09T08:13:49.996Z,100272.50
2023-05-09T08:16:18.427Z,100267.66
2023-05-09T08:18:46.927Z,100265.06
2023-05-09T08:21:15.273Z,100253.47
2023-05-09T08:23:43.607Z,100261.63
2023-05-09T08:26:12.068Z,100264.63
2023-05-09T08:28:41.862Z,100256.03
2023-05-09T08:31:10.253Z,100257.69
2023-05-09T08:33:41.723Z,100251.66
2023-05-09T08:36:10.798Z,100248.06
2023-05-09T08:38:40.602Z,100240.28
2023-05-09T08:41:09.086Z,100247.34
2023-05-09T08:43:39.006Z,100232.41
2023-05-09T08:46:11.431Z,100236.56
2023-05-09T08:48:41.090Z,100224.41
2023-05-09T08:51:11.111Z,100225.81
2023-05-09T08:53:39.824Z,100221.19
2023-05-09T08:56:09.049Z,100222.53
2023-05-09T08:58:37.822Z,100224.88
2023-05-09T09:01:07.066Z,100220.19
2023-05-09T09:03:39.281Z,100222.75
2023-05-09T09:06:10.195Z,100222.50
2023-05-09T09:08:38.964Z,100218.78
2023-05-09T09:11:08.339Z,100209.59
2023-05-09T09:13:41.735Z,100211.25
2023-05-09T09:16:12.337Z,100212.59
2023-05-09T09:18:42.111Z,100204.44
2023-05-09T09:21:13.600Z,100190.84
2023-05-09T09:23:45.481Z,100203.34
2023-05-09T09:26:13.950Z,100196.88
2023-05-09T09:28:43.090Z,100198.91
2023-05-09T09:31:22.345Z,100198.16
2023-05-09T09:33:52.591Z,100179.38
2023-05-09T09:36:29.153Z,100181.09
2023-05-09T09:39:02.427Z,100183.06
2023-05-09T09:41:35.235Z,100184.66
2023-05-09T09:44:09.315Z,100189.31
2023-05-09T09:46:48.657Z,100179.81
2023-05-09T09:49:20.435Z,100185.97
2023-05-09T09:51:53.119Z,100165.22
2023-05-09T09:54:22.381Z,100165.88
2023-05-09T09:56:54.322Z,100166.25
2023-05-09T09:59:25.046Z,100155.19
2023-05-09T10:01:57.843Z,100157.25
2023-05-09T10:04:31.498Z,100154.00
2023-05-09T10:07:03.457Z,100151.19
2023-05-09T10:09:32.103Z,100140.28
2023-05-09T10:12:05.214Z,100142.09
2023-05-09T10:14:36.202Z,100133.97
2023-05-09T10:17:06.433Z,100141.47
2023-05-09T10:19:39.358Z,100132.75
2023-05-09T10:22:11.925Z,100136.63
2023-05-09T10:24:48.269Z,100128.31
2023-05-09T10:27:20.743Z,100127.22
2023-05-09T10:29:58.629Z,100127.38
2023-05-09T10:32:33.809Z,100119.97
2023-05-09T10:35:09.995Z,100114.78
2023-05-09T10:37:39.018Z,100114.06
2023-05-09T10:40:09.182Z,100112.44
2023-05-09T10:42:37.937Z,100102.47
2023-05-09T10:45:09.654Z,100105.53
2023-05-09T10:47:39.465Z,100087.69
2023-05-09T10:50:12.463Z,100082.72
2023-05-09T10:53:17.068Z,100081.13
2023-05-09T10:55:59.147Z,100077.63
2023-05-09T10:58:29.887Z,100069.34
2023-05-09T11:01:00.606Z,100070.22
2023-05-09T11:03:30.797Z,100057.13
2023-05-09T11:06:00.876Z,100058.63
2023-05-09T11:08:30.612Z,100043.78
2023-05-09T11:11:06.580Z,100066.75
2023-05-09T11:13:39.071Z,100058.56
2023-05-09T11:16:11.932Z,100060.28
2023-05-09T11:18:54.561Z,100056.56
2023-05-09T11:21:24.442Z,100050.88
2023-05-09T11:23:55.286Z,100048.56
2023-05-09T11:26:30.053Z,100033.91
2023-05-09T11:29:02.816Z,100032.00
2023-05-09T11:31:31.449Z,100034.81
2023-05-09T11:34:04.989Z,100033.44
2023-05-09T11:36:35.657Z,100033.03
2023-05-09T11:39:07.628Z,100024.13
2023-05-09T11:41:42.826Z,100019.03
2023-05-09T11:44:16.742Z,100009.41
2023-05-09T11:46:45.222Z,100004.03
2023-05-09T11:49:13.838Z,99999.22
2023-05-09T11:51:43.742Z,99999.88
2023-05-09T11:54:14.929Z,99998.00
2023-05-09T11:56:43.662Z,99992.59
2023-05-09T11:59:14.760Z,99986.69
2023-05-09T12:01:43.616Z,99983.00
2023-05-09T12:04:12.080Z,99975.53
2023-05-09T12:06:40.651Z,99973.13
2023-05-09T12:09:11.378Z,99984.75
2023-05-09T12:11:39.862Z,99969.41
2023-05-09T12:14:08.254Z,99965.66
2023-05-09T12:16:36.668Z,99967.16
2023-05-09T12:19:05.766Z,99963.94
2023-05-09T12:21:34.219Z,99959.13
2023-05-09T12:24:02.602Z,99953.84
2023-05-09T12:26:32.344Z,99954.91
2023-05-09T12:29:01.076Z,99943.44
2023-05-09T12:31:29.697Z,99945.81
2023-05-09T12:33:58.245Z,99939.78
2023-05-09T12:36:26.643Z,99932.13
2023-05-09T12:38:56.046Z,99927.66
2023-05-09T12:41:36.896Z,99921.56
2023-05-09T12:44:09.302Z,99920.78
2023-05-09T12:46:38.047Z,99916.75
2023-05-09T12:49:06.552Z,99904.50
2023-05-09T12:51:34.942Z,99906.03
2023-05-09T12:54:06.008Z,99889.69
2023-05-09T12:56:36.603Z,99894.44
2023-05-09T12:59:05.085Z,99897.66
2023-05-09T13:01:37.711Z,99885.66
2023-05-09T13:04:08.797Z,99863.19
2023-05-09T13:06:50.264Z,99882.56
2023-05-09T13:09:19.875Z,99859.44
2023-05-09T13:11:48.779Z,99856.88
2023-05-09T13:14:17.191Z,99866.84
2023-05-09T13:16:47.073Z,99861.22
2023-05-09T13:19:15.516Z,99850.13
2023-05-09T13:21:43.924Z,99845.63
2023-05-09T13:24:12.298Z,99841.59
2023-05-09T13:26:40.677Z,99838.00
2023-05-09T13:29:09.038Z,99834.31
2023-05-09T13:31:37.523Z,99825.16
2023-05-09T13:34:07.265Z,99822.03
2023-05-09T13:36:35.722Z,99822.03
2023-05-09T13:39:04.689Z,99817.97
2023-05-09T13:41:34.869Z,99811.94
2023-05-09T13:44:04.291Z,99809.81
2023-05-09T13:46:32.830Z,99806.13
2023-05-09T13:49:01.204Z,99802.41
2023-05-09T13:51:31.109Z,99798.91
2023-05-09T13:53:59.472Z,99794.06
2023-05-09T13:56:28.060Z,99790.31
2023-05-09T13:58:56.745Z,99789.47
2023-05-09T14:01:25.521Z,99798.34
2023-05-09T14:03:54.134Z,99794.81
2023-05-09T14:06:22.646Z,99788.16
2023-05-09T14:08:52.452Z,99784.72
2023-05-09T14:11:21.692Z,99778.00
2023-05-09T14:13:50.339Z,99779.25
2023-05-09T14:16:18.839Z,99769.63
2023-05-09T14:18:47.436Z,99768.19
2023-05-09T14:21:16.403Z,99765.25
2023-05-09T14:23:45.211Z,99755.56
2023-05-09T14:26:15.108Z,99755.53
2023-05-09T14:28:44.304Z,99755.25
2023-05-09T14:31:13.456Z,99732.72
2023-05-09T14:33:41.865Z,99740.78
2023-05-09T14:36:11.009Z,99740.25
2023-05-09T14:38:39.752Z,99735.44
2023-05-09T14:41:09.001Z,99733.56
2023-05-09T14:43:38.666Z,99727.94
2023-05-09T14:46:07.067Z,99716.75
2023-05-09T14:48:35.546Z,99710.69
2023-05-09T14:51:04.306Z,99706.16
2023-05-09T14:53:35.478Z,99698.66
2023-05-09T14:56:03.877Z,99693.03
2023-05-09T14:58:34.217Z,99694.00
2023-05-09T15:01:04.248Z,99694.25
2023-05-09T15:03:32.767Z,99690.53
2023-05-09T15:06:01.082Z,99683.56
2023-05-09T15:08:29.416Z,99688.31
2023-05-09T15:10:58.009Z,99691.47
2023-05-09T15:13:26.449Z,99685.56
2023-05-09T15:15:54.822Z,99685.75
2023-05-09T15:18:28.541Z,99680.28
2023-05-09T15:20:57.438Z,99672.44
2023-05-09T15:23:25.856Z,99681.06
2023-05-09T15:25:54.170Z,99678.88
2023-05-09T15:28:22.519Z,99678.94
2023-05-09T15:30:50.919Z,99689.63
2023-05-09T15:33:19.346Z,99694.06
2023-05-09T15:35:50.158Z,99704.16
2023-05-09T15:38:18.716Z,99701.44
2023-05-09T15:40:47.766Z,99699.88
2023-05-09T15:43:16.420Z,99700.94
2023-05-09T15:45:45.793Z,99711.63
2023-05-09T15:48:14.291Z,99707.47
2023-05-09T15:50:43.715Z,99694.31
2023-05-09T15:53:15.573Z,99677.53
2023-05-09T15:55:44.652Z,99679.66
2023-05-09T15:58:14.084Z,99664.06
2023-05-09T16:00:42.406Z,99657.56
2023-05-09T16:03:10.818Z,99654.94
2023-05-09T16:05:40.997Z,99634.13
2023-05-09T16:08:09.531Z,99633.44
2023-05-09T16:10:39.315Z,99633.44
2023-05-09T16:13:08.157Z,99632.97
2023-05-09T16:15:37.177Z,99624.94
2023-05-09T16:18:05.808Z,99620.16
2023-05-09T16:20:34.197Z,99620.09
2023-05-09T16:23:02.947Z,99616.34
2023-05-09T16:25:33.410Z,99615.59
2023-05-09T16:28:04.940Z,99612.03
2023-05-09T16:30:33.340Z,99604.44
2023-05-09T16:33:01.904Z,99596.78
2023-05-09T16:35:30.505Z,99594.56
2023-05-09T16:37:59.073Z,99592.09
2023-05-09T16:40:27.473Z,99592.72
2023-05-09T16:42:55.897Z,99582.16
2023-05-09T16:45:25.823Z,99586.41
2023-05-09T16:47:55.721Z,99589.06
2023-05-09T16:50:24.529Z,99581.53
2023-05-09T16:52:53.603Z,99569.13
2023-05-09T16:55:22.068Z,99568.94
2023-05-09T16:57:50.468Z,99567.22
2023-05-09T17:00:20.704Z,99577.50
2023-05-09T17:02:50.452Z,99584.56
2023-05-09T17:05:19.382Z,99592.53
2023-05-09T17:07:47.780Z,99592.72
2023-05-09T17:10:16.392Z,99609.75
2023-05-09T17:12:44.954Z,99597.94
2023-05-09T17:15:13.871Z,99602.69
2023-05-09T17:17:42.418Z,99597.94
2023-05-09T17:20:13.442Z,99592.09
2023-05-09T17:22:42.141Z,99600.28
2023-05-09T17:25:11.186Z,99589.41
2023-05-09T17:27:42.791Z,99600.00
2023-05-09T17:30:12.026Z,99599.19
2023-05-09T17:32:41.962Z,99582.63
2023-05-09T17:35:12.286Z,99587.78
2023-05-09T17:37:40.966Z,99581.63
2023-05-09T17:40:12.705Z,99579.91
2023-05-09T17:42:43.186Z,99573.78
2023-05-09T17:45:12.745Z,99570.13
2023-05-09T17:47:43.764Z,99562.78
2023-05-09T17:50:16.908Z,99581.34
2023-05-09T17:52:45.863Z,99578.75
2023-05-09T17:55:14.408Z,99563.13
2023-05-09T17:57:45.875Z,99567.72
2023-05-09T18:00:16.298Z,99569.22
2023-05-09T18:02:45.346Z,99550.50
2023-05-09T18:05:15.131Z,99549.63
2023-05-09T18:07:43.524Z,99541.81
2023-05-09T18:10:12.911Z,99551.03
2023-05-09T18:12:41.695Z,99547.47
2023-05-09T18:15:11.438Z,99553.03
2023-05-09T18:17:39.879Z,99563.06
2023-05-09T18:20:10.738Z,99563.78
2023-05-09T18:22:40.497Z,99565.97
2023-05-09T18:25:09.708Z,99583.75
2023-05-09T18:27:38.013Z,99603.63
2023-05-09T18:30:08.182Z,99603.84
2023-05-09T18:32:36.573Z,99601.19
2023-05-09T18:35:05.504Z,99606.94
2023-05-09T18:37:33.933Z,99593.28
2023-05-09T18:40:05.310Z,99590.69
2023-05-09T18:42:33.681Z,99584.88
2023-05-09T18:45:04.369Z,99594.31
2023-05-09T18:47:32.901Z,99598.25
2023-05-09T18:50:02.822Z,99608.50
2023-05-09T18:52:32.444Z,99611.00
2023-05-09T18:55:00.880Z,99618.91
2023-05-09T18:57:30.622Z,99610.00
2023-05-09T18:59:58.993Z,99614.25
2023-05-09T19:02:27.440Z,99615.09
2023-05-09T19:04:55.804Z,99600.69
2023-05-09T19:07:24.192Z,99620.22
2023-05-09T19:09:52.623Z,99616.66
2023-05-09T19:12:20.946Z,99594.06
2023-05-09T19:14:50.758Z,99593.31
2023-05-09T19:17:19.096Z,99601.28
2023-05-09T19:19:47.472Z,99605.41
2023-05-09T19:22:15.940Z,99595.06
2023-05-09T19:24:44.313Z,99594.81
2023-05-09T19:27:12.713Z,99582.25
2023-05-09T19:29:41.116Z,99600.72
2023-05-09T19:32:10.940Z,99611.00
2023-05-09T19:34:39.328Z,99609.53
2023-05-09T19:37:07.662Z,99612.88
2023-05-09T19:39:36.044Z,99604.75
2023-05-09T19:42:04.537Z,99609.63
2023-05-09T19:44:32.915Z,99600.63
2023-05-09T19:47:05.092Z,99609.03
2023-05-09T19:49:34.798Z,99607.47
2023-05-09T19:52:03.178Z,99632.28
2023-05-09T19:54:32.433Z,99625.53
2023-05-09T19:57:00.722Z,99635.47
2023-05-09T19:59:30.436Z,99627.41
2023-05-09T20:01:58.978Z,99618.69
2023-05-09T20:04:27.382Z,99611.84
2023-05-09T20:06:57.069Z,99601.56
2023-05-09T20:09:25.380Z,99604.47
2023-05-09T20:11:53.776Z,99603.63
2023-05-09T20:14:22.332Z,99602.16
2023-05-09T20:16:50.638Z,99598.00
2023-05-09T20:19:19.992Z,99599.72
2023-05-09T20:21:48.299Z,99598.44
2023-05-09T20:24:18.075Z,99585.03
2023-05-09T20:26:46.441Z,99596.50
2023-05-09T20:29:14.860Z,99593.84
2023-05-09T20:31:43.310Z,99591.63
2023-05-09T20:34:16.006Z,99592.44
2023-05-09T20:36:44.536Z,99587.38
2023-05-09T20:39:13.304Z,99590.22
2023-05-09T20:41:43.435Z,99593.50
2023-05-09T20:44:11.766Z,99589.78
2023-05-09T20:46:40.575Z,99585.50
2023-05-09T20:49:08.943Z,99583.88
2023-05-09T20:51:38.568Z,99588.38
2023-05-09T20:54:07.332Z,99589.56
2023-05-09T20:56:35.867Z,99588.25
2023-05-09T20:59:06.771Z,99591.41
2023-05-09T21:01:36.865Z,99585.97
2023-05-09T21:04:05.979Z,99576.84
2023-05-09T21:06:34.437Z,99578.00
2023-05-09T21:09:03.015Z,99581.00
2023-05-09T21:11:31.644Z,99578.00
2023-05-09T21:13:59.970Z,99573.63
2023-05-09T21:16:29.837Z,99573.50
2023-05-09T21:18:59.444Z,99573.63
2023-05-09T21:21:27.797Z,99576.28
2023-05-09T21:23:56.166Z,99570.97
2023-05-09T21:26:24.504Z,99573.72
2023-05-09T21:28:52.861Z,99567.84
2023-05-09T21:31:21.267Z,99572.13
2023-05-09T21:33:50.958Z,99567.16
2023-05-09T21:36:19.417Z,99565.88
2023-05-09T21:38:47.714Z,99566.69
2023-05-09T21:41:16.057Z,99558.16
2023-05-09T21:43:44.377Z,99561.75
2023-05-09T21:46:12.779Z,99558.59
2023-05-09T21:48:41.220Z,99544.72
2023-05-09T21:51:12.367Z,99553.66
2023-05-09T21:53:40.699Z,99561.81
2023-05-09T21:56:09.308Z,99552.94
2023-05-09T21:58:37.656Z,99551.09
2023-05-09T22:01:06.228Z,99559.88
2023-05-09T22:03:34.617Z,99556.63
2023-05-09T22:06:03.026Z,99550.41
2023-05-09T22:08:32.783Z,99550.16
2023-05-09T22:11:01.116Z,99539.53
2023-05-09T22:13:29.490Z,99551.69
2023-05-09T22:15:57.937Z,99540.94
2023-05-09T22:18:26.456Z,99544.53
2023-05-09T22:20:54.900Z,99547.97
2023-05-09T22:23:23.286Z,99545.31
2023-05-09T22:25:53.170Z,99533.66
2023-05-09T22:28:21.529Z,99538.28
2023-05-09T22:30:49.976Z,99544.97
2023-05-09T22:33:18.322Z,99543.00
2023-05-09T22:35:47.905Z,99540.94
2023-05-09T22:38:16.241Z,99530.53
2023-05-09T22:40:44.955Z,99531.44
2023-05-09T22:43:14.655Z,99531.44
2023-05-09T22:45:43.815Z,99525.22
2023-05-09T22:48:12.233Z,99527.53
2023-05-09T22:50:40.562Z,99537.13
2023-05-09T22:53:09.275Z,99520.38
2023-05-09T22:55:37.658Z,99526.94
2023-05-09T22:58:06.080Z,99525.09
2023-05-09T23:00:36.085Z,99519.91
2023-05-09T23:03:05.086Z,99531.56
2023-05-09T23:05:33.569Z,99517.81
2023-05-09T23:08:02.035Z,99522.56
2023-05-09T23:10:30.479Z,99516.78
2023-05-09T23:12:58.810Z,99520.59
2023-05-09T23:15:27.187Z,99521.50
2023-05-09T23:17:56.897Z,99519.44
2023-05-09T23:20:25.200Z,99513.78
2023-05-09T23:22:53.639Z,99504.19
2023-05-09T23:25:22.324Z,99511.13
2023-05-09T23:27:50.681Z,99515.16
2023-05-09T23:30:19.125Z,99496.09
2023-05-09T23:32:47.546Z,99506.25
2023-05-09T23:35:17.674Z,99506.72
2023-05-09T23:37:46.103Z,99499.69
2023-05-09T23:40:15.510Z,99517.72
2023-05-09T23:42:50.124Z,99518.16
2023-05-09T23:45:18.653Z,99513.28
2023-05-09T23:47:47.043Z,99516.06
2023-05-09T23:50:16.957Z,99515.50
2023-05-09T23:52:49.563Z,99527.97
2023-05-09T23:55:18.224Z,99519.91
2023-05-09T23:57:46.605Z,99527.63
